ホバート の空港の天気 - METARとTAF

ホバート国際空港 ( YMHB / HBA ) - オーストラリア タスマニア州、Cambridge
飛行場実況気象(Metar)
観測時間01/29 18:30 AEDT (01/29 07:30 UTC)
風向・風速南 5m/s
視程10km以上
天気現象
少しの雲 雲底高度 760m
全天の8割程度の雲 雲底高度 1160m
気温18℃
湿度68%
気圧1021hPa
METARYMHB 290730Z 17010KT 9999 FEW025 BKN038 18/12 Q1021 RF00.0/000.0
過去の天気等 Google飛行場航空写真 Wunderground天気予報

過去48時間のMETAR

飛行場予報(TAF)
発表時間: 1/29 16:19 AEDT (1/29 05:19 UTC)
予報対象時間: 29日17時 AEDT ~ 30日17時 AEDT
風向・風速南南東 7m/s
視程10km以上
全天の8割程度の雲 雲底高度 910m
29日21時 AEDT から
風向・風速東 4m/s
視程10km以上
少しの雲 雲底高度 460m
全天の8割程度の雲 雲底高度 610m
30日2時 AEDT から
風向・風速北東 3m/s
視程10km以上
少しの雲 雲底高度 460m
全天の8割程度の雲 雲底高度 610m
30日10時 AEDT から
風向・風速北東 3m/s
視程10km以上
全天の4割程度の雲 雲底高度 910m
30日13時 AEDT から
風向・風速南東 6m/s
視程10km以上
少しの雲 雲底高度 910m
TAF AMD YMHB 290519Z 2906/3006 16014KT 9999 BKN030
FM291000 10007KT 9999 FEW015 BKN020
FM291500 05006KT 9999 FEW015 BKN020
FM292300 05006KT 9999 SCT030
FM300200 14012KT 9999 FEW030